sensor_id;sensor_type;location;lat;lon;timestamp;temperature;humidity
18406;DHT22;9329;48.720;9.588;2022-12-13T00:01:25;-2.90;99.90
18406;DHT22;9329;48.720;9.588;2022-12-13T00:03:55;-2.90;99.90
18406;DHT22;9329;48.720;9.588;2022-12-13T00:06:23;-2.90;99.90
18406;DHT22;9329;48.720;9.588;2022-12-13T00:08:50;-2.90;99.90
18406;DHT22;9329;48.720;9.588;2022-12-13T00:11:18;-2.90;99.90
18406;DHT22;9329;48.720;9.588;2022-12-13T00:13:46;-2.80;99.90
18406;DHT22;9329;48.720;9.588;2022-12-13T00:16:14;-2.70;99.90
18406;DHT22;9329;48.720;9.588;2022-12-13T00:18:42;-2.90;99.90
18406;DHT22;9329;48.720;9.588;2022-12-13T00:21:13;-2.80;99.90
18406;DHT22;9329;48.720;9.588;2022-12-13T00:23:41;-2.90;99.90
18406;DHT22;9329;48.720;9.588;2022-12-13T00:26:11;-3.10;99.90
18406;DHT22;9329;48.720;9.588;2022-12-13T00:28:38;-3.10;99.90
18406;DHT22;9329;48.720;9.588;2022-12-13T00:31:06;-3.00;99.90
18406;DHT22;9329;48.720;9.588;2022-12-13T00:33:33;-3.20;99.90
18406;DHT22;9329;48.720;9.588;2022-12-13T00:36:02;-3.10;99.90
18406;DHT22;9329;48.720;9.588;2022-12-13T00:38:31;-3.00;99.90
18406;DHT22;9329;48.720;9.588;2022-12-13T00:40:58;-3.00;99.90
18406;DHT22;9329;48.720;9.588;2022-12-13T00:43:26;-3.20;99.90
18406;DHT22;9329;48.720;9.588;2022-12-13T00:45:53;-3.40;99.90
18406;DHT22;9329;48.720;9.588;2022-12-13T00:48:20;-3.40;99.90
18406;DHT22;9329;48.720;9.588;2022-12-13T00:50:48;-3.50;99.90
18406;DHT22;9329;48.720;9.588;2022-12-13T00:53:15;-3.20;99.90
18406;DHT22;9329;48.720;9.588;2022-12-13T00:55:43;-3.20;99.90
18406;DHT22;9329;48.720;9.588;2022-12-13T00:58:10;-3.30;99.90
18406;DHT22;9329;48.720;9.588;2022-12-13T01:00:37;-3.30;99.90
18406;DHT22;9329;48.720;9.588;2022-12-13T01:03:04;-3.40;99.90
18406;DHT22;9329;48.720;9.588;2022-12-13T01:05:45;-3.40;99.90
18406;DHT22;9329;48.720;9.588;2022-12-13T01:08:13;-3.30;99.90
18406;DHT22;9329;48.720;9.588;2022-12-13T01:10:43;-3.40;99.90
18406;DHT22;9329;48.720;9.588;2022-12-13T01:13:13;-3.40;99.90
18406;DHT22;9329;48.720;9.588;2022-12-13T01:15:41;-3.50;99.90
18406;DHT22;9329;48.720;9.588;2022-12-13T01:18:08;-3.50;99.90
18406;DHT22;9329;48.720;9.588;2022-12-13T01:20:36;-3.50;99.90
18406;DHT22;9329;48.720;9.588;2022-12-13T01:23:03;-3.50;99.90
18406;DHT22;9329;48.720;9.588;2022-12-13T01:25:30;-3.50;99.90
18406;DHT22;9329;48.720;9.588;2022-12-13T01:27:59;-3.60;99.90
18406;DHT22;9329;48.720;9.588;2022-12-13T01:30:26;-3.50;99.90
18406;DHT22;9329;48.720;9.588;2022-12-13T01:32:53;-3.40;99.90
18406;DHT22;9329;48.720;9.588;2022-12-13T01:35:20;-3.30;99.90
18406;DHT22;9329;48.720;9.588;2022-12-13T01:37:47;-3.40;99.90
18406;DHT22;9329;48.720;9.588;2022-12-13T01:40:14;-3.40;99.90
18406;DHT22;9329;48.720;9.588;2022-12-13T01:42:41;-3.40;99.90
18406;DHT22;9329;48.720;9.588;2022-12-13T01:45:22;-3.50;99.90
18406;DHT22;9329;48.720;9.588;2022-12-13T01:47:52;-3.40;99.90
18406;DHT22;9329;48.720;9.588;2022-12-13T01:50:24;-3.50;99.90
18406;DHT22;9329;48.720;9.588;2022-12-13T01:52:52;-3.60;99.90
18406;DHT22;9329;48.720;9.588;2022-12-13T01:55:21;-3.60;99.90
18406;DHT22;9329;48.720;9.588;2022-12-13T01:57:50;-3.60;99.90
18406;DHT22;9329;48.720;9.588;2022-12-13T02:00:20;-3.60;99.90
18406;DHT22;9329;48.720;9.588;2022-12-13T02:02:47;-3.70;99.90
18406;DHT22;9329;48.720;9.588;2022-12-13T02:05:19;-3.70;99.90
18406;DHT22;9329;48.720;9.588;2022-12-13T02:07:48;-3.80;99.90
18406;DHT22;9329;48.720;9.588;2022-12-13T02:10:16;-3.70;99.90
18406;DHT22;9329;48.720;9.588;2022-12-13T02:12:43;-3.70;99.90
18406;DHT22;9329;48.720;9.588;2022-12-13T02:15:13;-3.70;99.90
18406;DHT22;9329;48.720;9.588;2022-12-13T02:17:55;-3.50;99.90
18406;DHT22;9329;48.720;9.588;2022-12-13T02:26:51;-3.50;99.90
18406;DHT22;9329;48.720;9.588;2022-12-13T02:32:15;-3.50;99.90
18406;DHT22;9329;48.720;9.588;2022-12-13T02:34:46;-3.60;99.90
18406;DHT22;9329;48.720;9.588;2022-12-13T02:37:19;-3.60;99.90
18406;DHT22;9329;48.720;9.588;2022-12-13T02:39:53;-3.60;99.90
18406;DHT22;9329;48.720;9.588;2022-12-13T02:42:26;-3.60;99.90
18406;DHT22;9329;48.720;9.588;2022-12-13T02:45:00;-3.60;99.90
18406;DHT22;9329;48.720;9.588;2022-12-13T02:47:30;-3.60;99.90
18406;DHT22;9329;48.720;9.588;2022-12-13T02:50:02;-3.70;99.90
18406;DHT22;9329;48.720;9.588;2022-12-13T02:52:30;-3.80;99.90
18406;DHT22;9329;48.720;9.588;2022-12-13T02:54:58;-3.90;99.90
18406;DHT22;9329;48.720;9.588;2022-12-13T02:57:28;-3.90;99.90
18406;DHT22;9329;48.720;9.588;2022-12-13T02:59:57;-3.90;99.90
18406;DHT22;9329;48.720;9.588;2022-12-13T03:02:32;-4.00;99.90
18406;DHT22;9329;48.720;9.588;2022-12-13T03:05:06;-4.10;99.90
18406;DHT22;9329;48.720;9.588;2022-12-13T03:07:59;-4.10;99.90
18406;DHT22;9329;48.720;9.588;2022-12-13T03:10:34;-4.10;99.90
18406;DHT22;9329;48.720;9.588;2022-12-13T03:13:06;-4.00;99.90
18406;DHT22;9329;48.720;9.588;2022-12-13T03:15:55;-4.00;99.90
18406;DHT22;9329;48.720;9.588;2022-12-13T03:18:26;-4.00;99.90
18406;DHT22;9329;48.720;9.588;2022-12-13T03:20:58;-4.00;99.90
18406;DHT22;9329;48.720;9.588;2022-12-13T03:23:26;-3.90;99.90
18406;DHT22;9329;48.720;9.588;2022-12-13T03:25:55;-3.90;99.90
18406;DHT22;9329;48.720;9.588;2022-12-13T03:28:22;-3.90;99.90
18406;DHT22;9329;48.720;9.588;2022-12-13T03:30:49;-4.00;99.90
18406;DHT22;9329;48.720;9.588;2022-12-13T03:33:16;-3.90;99.90
18406;DHT22;9329;48.720;9.588;2022-12-13T03:35:45;-3.80;99.90
18406;DHT22;9329;48.720;9.588;2022-12-13T03:38:13;-3.80;99.90
18406;DHT22;9329;48.720;9.588;2022-12-13T03:40:40;-3.80;99.90
18406;DHT22;9329;48.720;9.588;2022-12-13T03:43:07;-3.70;99.90
18406;DHT22;9329;48.720;9.588;2022-12-13T03:45:34;-3.70;99.90
18406;DHT22;9329;48.720;9.588;2022-12-13T03:48:01;-3.60;99.90
18406;DHT22;9329;48.720;9.588;2022-12-13T03:50:28;-3.60;99.90
18406;DHT22;9329;48.720;9.588;2022-12-13T03:52:59;-3.60;99.90
18406;DHT22;9329;48.720;9.588;2022-12-13T03:55:28;-3.70;99.90
18406;DHT22;9329;48.720;9.588;2022-12-13T03:57:55;-3.80;99.90
18406;DHT22;9329;48.720;9.588;2022-12-13T04:00:22;-3.70;99.90
18406;DHT22;9329;48.720;9.588;2022-12-13T04:02:49;-3.60;99.90
18406;DHT22;9329;48.720;9.588;2022-12-13T04:05:16;-3.50;99.90
18406;DHT22;9329;48.720;9.588;2022-12-13T04:07:44;-3.60;99.90
18406;DHT22;9329;48.720;9.588;2022-12-13T04:10:12;-3.70;99.90
18406;DHT22;9329;48.720;9.588;2022-12-13T04:12:39;-3.80;99.90
18406;DHT22;9329;48.720;9.588;2022-12-13T04:15:24;-3.90;99.90
18406;DHT22;9329;48.720;9.588;2022-12-13T04:17:51;-4.00;99.90
18406;DHT22;9329;48.720;9.588;2022-12-13T04:20:17;-4.00;99.90
18406;DHT22;9329;48.720;9.588;2022-12-13T04:22:44;-3.90;99.90
18406;DHT22;9329;48.720;9.588;2022-12-13T04:25:14;-4.00;99.90
18406;DHT22;9329;48.720;9.588;2022-12-13T04:27:41;-4.10;99.90
18406;DHT22;9329;48.720;9.588;2022-12-13T04:30:08;-4.10;99.90
18406;DHT22;9329;48.720;9.588;2022-12-13T04:32:36;-3.90;99.90
18406;DHT22;9329;48.720;9.588;2022-12-13T04:35:03;-4.00;99.90
18406;DHT22;9329;48.720;9.588;2022-12-13T04:37:30;-4.10;99.90
18406;DHT22;9329;48.720;9.588;2022-12-13T04:39:57;-4.10;99.90
18406;DHT22;9329;48.720;9.588;2022-12-13T04:42:26;-4.00;99.90
18406;DHT22;9329;48.720;9.588;2022-12-13T04:44:53;-4.00;99.90
18406;DHT22;9329;48.720;9.588;2022-12-13T04:47:20;-4.10;99.90
18406;DHT22;9329;48.720;9.588;2022-12-13T04:49:47;-4.20;99.90
18406;DHT22;9329;48.720;9.588;2022-12-13T04:52:14;-4.20;99.90
18406;DHT22;9329;48.720;9.588;2022-12-13T04:54:41;-4.20;99.90
18406;DHT22;9329;48.720;9.588;2022-12-13T04:57:09;-4.20;99.90
18406;DHT22;9329;48.720;9.588;2022-12-13T04:59:38;-4.10;99.90
18406;DHT22;9329;48.720;9.588;2022-12-13T05:02:07;-4.10;99.90
18406;DHT22;9329;48.720;9.588;2022-12-13T05:04:34;-3.90;99.90
18406;DHT22;9329;48.720;9.588;2022-12-13T05:07:02;-3.90;99.90
18406;DHT22;9329;48.720;9.588;2022-12-13T05:09:29;-4.20;99.90
18406;DHT22;9329;48.720;9.588;2022-12-13T05:11:56;-4.20;99.90
18406;DHT22;9329;48.720;9.588;2022-12-13T05:14:23;-4.20;99.90
18406;DHT22;9329;48.720;9.588;2022-12-13T05:16:51;-4.00;99.90
18406;DHT22;9329;48.720;9.588;2022-12-13T05:19:18;-3.90;99.90
18406;DHT22;9329;48.720;9.588;2022-12-13T05:21:45;-3.80;99.90
18406;DHT22;9329;48.720;9.588;2022-12-13T05:24:13;-3.80;99.90
18406;DHT22;9329;48.720;9.588;2022-12-13T05:26:40;-4.00;99.90
18406;DHT22;9329;48.720;9.588;2022-12-13T05:29:07;-4.10;99.90
18406;DHT22;9329;48.720;9.588;2022-12-13T05:31:34;-4.10;99.90
18406;DHT22;9329;48.720;9.588;2022-12-13T05:34:03;-4.30;99.90
18406;DHT22;9329;48.720;9.588;2022-12-13T05:36:30;-4.20;99.90
18406;DHT22;9329;48.720;9.588;2022-12-13T05:38:57;-4.20;99.90
18406;DHT22;9329;48.720;9.588;2022-12-13T05:41:27;-4.10;99.90
18406;DHT22;9329;48.720;9.588;2022-12-13T05:43:55;-4.10;99.90
18406;DHT22;9329;48.720;9.588;2022-12-13T05:46:22;-3.80;99.90
18406;DHT22;9329;48.720;9.588;2022-12-13T05:48:49;-3.80;99.90
18406;DHT22;9329;48.720;9.588;2022-12-13T05:51:19;-3.70;99.90
18406;DHT22;9329;48.720;9.588;2022-12-13T05:53:46;-3.80;99.90
18406;DHT22;9329;48.720;9.588;2022-12-13T05:56:13;-3.90;99.90
18406;DHT22;9329;48.720;9.588;2022-12-13T05:58:40;-3.70;99.90
18406;DHT22;9329;48.720;9.588;2022-12-13T06:01:09;-3.90;99.90
18406;DHT22;9329;48.720;9.588;2022-12-13T06:03:40;-3.80;99.90
18406;DHT22;9329;48.720;9.588;2022-12-13T06:06:09;-3.70;99.90
18406;DHT22;9329;48.720;9.588;2022-12-13T06:08:38;-3.90;99.90
18406;DHT22;9329;48.720;9.588;2022-12-13T06:11:06;-3.90;99.90
18406;DHT22;9329;48.720;9.588;2022-12-13T06:13:33;-3.90;99.90
18406;DHT22;9329;48.720;9.588;2022-12-13T06:16:02;-3.90;99.90
18406;DHT22;9329;48.720;9.588;2022-12-13T06:18:30;-4.00;99.90
18406;DHT22;9329;48.720;9.588;2022-12-13T06:21:00;-4.10;99.90
18406;DHT22;9329;48.720;9.588;2022-12-13T06:23:28;-4.00;99.90
18406;DHT22;9329;48.720;9.588;2022-12-13T06:25:56;-4.00;99.90
18406;DHT22;9329;48.720;9.588;2022-12-13T06:28:24;-4.10;99.90
18406;DHT22;9329;48.720;9.588;2022-12-13T06:30:51;-4.10;99.90
18406;DHT22;9329;48.720;9.588;2022-12-13T06:33:18;-4.30;99.90
18406;DHT22;9329;48.720;9.588;2022-12-13T06:35:45;-4.40;99.90
18406;DHT22;9329;48.720;9.588;2022-12-13T06:38:12;-4.40;99.90
18406;DHT22;9329;48.720;9.588;2022-12-13T06:40:39;-4.30;99.90
18406;DHT22;9329;48.720;9.588;2022-12-13T06:43:08;-4.30;99.90
18406;DHT22;9329;48.720;9.588;2022-12-13T06:45:37;-4.20;99.90
18406;DHT22;9329;48.720;9.588;2022-12-13T06:48:06;-4.30;99.90
18406;DHT22;9329;48.720;9.588;2022-12-13T06:50:36;-4.20;99.90
18406;DHT22;9329;48.720;9.588;2022-12-13T06:53:03;-4.40;99.90
18406;DHT22;9329;48.720;9.588;2022-12-13T06:55:38;-4.40;99.90
18406;DHT22;9329;48.720;9.588;2022-12-13T06:58:05;-4.40;99.90
18406;DHT22;9329;48.720;9.588;2022-12-13T07:00:34;-4.40;99.90
18406;DHT22;9329;48.720;9.588;2022-12-13T07:03:01;-4.50;99.90
18406;DHT22;9329;48.720;9.588;2022-12-13T07:05:28;-4.30;99.90
18406;DHT22;9329;48.720;9.588;2022-12-13T07:07:55;-4.10;99.90
18406;DHT22;9329;48.720;9.588;2022-12-13T07:10:22;-4.00;99.90
18406;DHT22;9329;48.720;9.588;2022-12-13T07:12:49;-4.00;99.90
18406;DHT22;9329;48.720;9.588;2022-12-13T07:15:16;-4.10;99.90
18406;DHT22;9329;48.720;9.588;2022-12-13T07:17:47;-4.10;99.90
18406;DHT22;9329;48.720;9.588;2022-12-13T07:20:15;-4.10;99.90
18406;DHT22;9329;48.720;9.588;2022-12-13T07:22:43;-4.30;99.90
18406;DHT22;9329;48.720;9.588;2022-12-13T07:25:11;-4.40;99.90
18406;DHT22;9329;48.720;9.588;2022-12-13T07:27:38;-4.40;99.90
18406;DHT22;9329;48.720;9.588;2022-12-13T07:30:06;-4.30;99.90
18406;DHT22;9329;48.720;9.588;2022-12-13T07:32:33;-4.20;99.90
18406;DHT22;9329;48.720;9.588;2022-12-13T07:35:01;-4.10;99.90
18406;DHT22;9329;48.720;9.588;2022-12-13T07:37:29;-4.00;99.90
18406;DHT22;9329;48.720;9.588;2022-12-13T07:39:56;-4.00;99.90
18406;DHT22;9329;48.720;9.588;2022-12-13T07:42:23;-3.90;99.90
18406;DHT22;9329;48.720;9.588;2022-12-13T07:44:50;-3.70;99.90
18406;DHT22;9329;48.720;9.588;2022-12-13T07:47:17;-3.80;99.90
18406;DHT22;9329;48.720;9.588;2022-12-13T07:49:44;-3.70;99.90
18406;DHT22;9329;48.720;9.588;2022-12-13T07:52:12;-3.50;99.90
18406;DHT22;9329;48.720;9.588;2022-12-13T07:54:39;-3.60;99.90
18406;DHT22;9329;48.720;9.588;2022-12-13T07:57:06;-3.60;99.90
18406;DHT22;9329;48.720;9.588;2022-12-13T07:59:33;-3.30;99.90
18406;DHT22;9329;48.720;9.588;2022-12-13T08:02:00;-3.20;99.90
18406;DHT22;9329;48.720;9.588;2022-12-13T08:04:27;-3.10;99.90
18406;DHT22;9329;48.720;9.588;2022-12-13T08:06:54;-2.90;99.90
18406;DHT22;9329;48.720;9.588;2022-12-13T08:09:23;-2.90;99.90
18406;DHT22;9329;48.720;9.588;2022-12-13T08:11:50;-2.30;99.90
18406;DHT22;9329;48.720;9.588;2022-12-13T08:14:17;-2.10;99.90
18406;DHT22;9329;48.720;9.588;2022-12-13T08:16:44;-2.30;99.90
18406;DHT22;9329;48.720;9.588;2022-12-13T08:19:11;-1.90;99.90
18406;DHT22;9329;48.720;9.588;2022-12-13T08:21:40;-2.10;99.90
18406;DHT22;9329;48.720;9.588;2022-12-13T08:24:09;-2.10;99.90
18406;DHT22;9329;48.720;9.588;2022-12-13T08:26:37;-2.10;99.90
18406;DHT22;9329;48.720;9.588;2022-12-13T08:29:04;-2.00;99.90
18406;DHT22;9329;48.720;9.588;2022-12-13T08:31:34;-1.70;99.90
18406;DHT22;9329;48.720;9.588;2022-12-13T08:34:01;-2.10;99.90
18406;DHT22;9329;48.720;9.588;2022-12-13T08:36:28;-2.30;99.90
18406;DHT22;9329;48.720;9.588;2022-12-13T08:38:55;-2.20;99.90
18406;DHT22;9329;48.720;9.588;2022-12-13T08:41:23;-2.10;99.90
18406;DHT22;9329;48.720;9.588;2022-12-13T08:43:51;-2.00;99.90
18406;DHT22;9329;48.720;9.588;2022-12-13T08:46:18;-1.90;99.90
18406;DHT22;9329;48.720;9.588;2022-12-13T08:48:45;-1.60;99.90
18406;DHT22;9329;48.720;9.588;2022-12-13T08:51:13;-1.60;99.90
18406;DHT22;9329;48.720;9.588;2022-12-13T08:53:42;-1.50;99.90
18406;DHT22;9329;48.720;9.588;2022-12-13T08:56:10;-1.40;99.90
18406;DHT22;9329;48.720;9.588;2022-12-13T08:58:38;-1.10;99.90
18406;DHT22;9329;48.720;9.588;2022-12-13T09:01:07;-1.00;99.90
18406;DHT22;9329;48.720;9.588;2022-12-13T09:03:35;-0.80;99.90
18406;DHT22;9329;48.720;9.588;2022-12-13T09:06:06;-0.40;99.90
18406;DHT22;9329;48.720;9.588;2022-12-13T09:08:35;-0.30;99.90
18406;DHT22;9329;48.720;9.588;2022-12-13T09:11:03;-0.50;99.90
18406;DHT22;9329;48.720;9.588;2022-12-13T09:13:32;-0.20;99.90
18406;DHT22;9329;48.720;9.588;2022-12-13T09:16:03;-0.30;99.90
18406;DHT22;9329;48.720;9.588;2022-12-13T09:18:32;-0.50;99.90
18406;DHT22;9329;48.720;9.588;2022-12-13T09:20:59;-0.10;99.90
18406;DHT22;9329;48.720;9.588;2022-12-13T09:23:26;-0.30;99.90
18406;DHT22;9329;48.720;9.588;2022-12-13T09:25:54;-0.50;99.90
18406;DHT22;9329;48.720;9.588;2022-12-13T09:28:22;-0.20;99.90
18406;DHT22;9329;48.720;9.588;2022-12-13T09:30:49;-0.10;99.90
18406;DHT22;9329;48.720;9.588;2022-12-13T09:33:16;-0.10;99.90
18406;DHT22;9329;48.720;9.588;2022-12-13T09:35:45;0.10;99.90
18406;DHT22;9329;48.720;9.588;2022-12-13T09:38:12;0.20;99.90
18406;DHT22;9329;48.720;9.588;2022-12-13T09:40:43;0.30;99.90
18406;DHT22;9329;48.720;9.588;2022-12-13T09:43:14;0.20;99.90
18406;DHT22;9329;48.720;9.588;2022-12-13T09:45:44;0.50;99.90
18406;DHT22;9329;48.720;9.588;2022-12-13T09:48:15;0.40;99.90
18406;DHT22;9329;48.720;9.588;2022-12-13T09:50:45;0.60;99.90
18406;DHT22;9329;48.720;9.588;2022-12-13T09:53:14;0.30;99.90
18406;DHT22;9329;48.720;9.588;2022-12-13T09:55:44;0.50;99.90
18406;DHT22;9329;48.720;9.588;2022-12-13T09:58:15;0.60;99.90
18406;DHT22;9329;48.720;9.588;2022-12-13T10:00:45;0.70;99.90
18406;DHT22;9329;48.720;9.588;2022-12-13T10:03:14;0.70;99.90
18406;DHT22;9329;48.720;9.588;2022-12-13T10:05:49;0.80;99.90
18406;DHT22;9329;48.720;9.588;2022-12-13T10:08:22;0.50;99.90
18406;DHT22;9329;48.720;9.588;2022-12-13T10:10:50;0.60;99.90
18406;DHT22;9329;48.720;9.588;2022-12-13T10:13:20;0.40;99.90
18406;DHT22;9329;48.720;9.588;2022-12-13T10:15:51;0.60;99.90
18406;DHT22;9329;48.720;9.588;2022-12-13T10:18:26;0.70;99.90
18406;DHT22;9329;48.720;9.588;2022-12-13T10:20:59;0.50;99.90
18406;DHT22;9329;48.720;9.588;2022-12-13T10:23:27;0.70;99.90
18406;DHT22;9329;48.720;9.588;2022-12-13T10:25:55;0.60;99.90
18406;DHT22;9329;48.720;9.588;2022-12-13T10:28:26;0.50;99.90
18406;DHT22;9329;48.720;9.588;2022-12-13T10:30:54;0.50;99.90
18406;DHT22;9329;48.720;9.588;2022-12-13T10:33:24;0.60;99.90
18406;DHT22;9329;48.720;9.588;2022-12-13T10:36:05;0.80;99.90
18406;DHT22;9329;48.720;9.588;2022-12-13T10:38:37;1.20;99.90
18406;DHT22;9329;48.720;9.588;2022-12-13T10:41:29;1.10;99.90
18406;DHT22;9329;48.720;9.588;2022-12-13T10:44:08;0.80;99.90
18406;DHT22;9329;48.720;9.588;2022-12-13T10:46:35;1.00;99.90
18406;DHT22;9329;48.720;9.588;2022-12-13T10:49:02;1.00;99.90
18406;DHT22;9329;48.720;9.588;2022-12-13T10:51:38;0.60;99.90
18406;DHT22;9329;48.720;9.588;2022-12-13T10:54:14;0.60;99.90
18406;DHT22;9329;48.720;9.588;2022-12-13T10:56:45;0.70;99.90
18406;DHT22;9329;48.720;9.588;2022-12-13T10:59:24;0.70;99.90
18406;DHT22;9329;48.720;9.588;2022-12-13T11:01:52;1.10;99.90
18406;DHT22;9329;48.720;9.588;2022-12-13T11:04:22;1.40;99.90
18406;DHT22;9329;48.720;9.588;2022-12-13T11:06:52;1.20;99.90
18406;DHT22;9329;48.720;9.588;2022-12-13T11:09:25;1.20;99.90
18406;DHT22;9329;48.720;9.588;2022-12-13T11:11:53;1.50;99.90
18406;DHT22;9329;48.720;9.588;2022-12-13T11:14:23;1.80;99.90
18406;DHT22;9329;48.720;9.588;2022-12-13T11:16:54;1.80;99.90
18406;DHT22;9329;48.720;9.588;2022-12-13T11:19:27;1.70;99.90
18406;DHT22;9329;48.720;9.588;2022-12-13T11:21:59;1.60;99.90
18406;DHT22;9329;48.720;9.588;2022-12-13T11:24:30;1.70;99.90
18406;DHT22;9329;48.720;9.588;2022-12-13T11:27:03;1.70;99.90
18406;DHT22;9329;48.720;9.588;2022-12-13T11:29:53;1.90;99.90
18406;DHT22;9329;48.720;9.588;2022-12-13T11:32:33;2.20;99.90
18406;DHT22;9329;48.720;9.588;2022-12-13T11:35:10;1.90;99.90
18406;DHT22;9329;48.720;9.588;2022-12-13T11:37:46;1.70;99.90
18406;DHT22;9329;48.720;9.588;2022-12-13T11:40:19;1.70;99.90
18406;DHT22;9329;48.720;9.588;2022-12-13T11:42:51;2.10;99.90
18406;DHT22;9329;48.720;9.588;2022-12-13T11:45:25;2.70;99.90
18406;DHT22;9329;48.720;9.588;2022-12-13T11:48:00;2.60;99.90
18406;DHT22;9329;48.720;9.588;2022-12-13T11:50:32;2.70;99.90
18406;DHT22;9329;48.720;9.588;2022-12-13T11:53:19;2.50;99.90
18406;DHT22;9329;48.720;9.588;2022-12-13T11:55:50;2.50;99.90
18406;DHT22;9329;48.720;9.588;2022-12-13T11:58:22;2.20;99.90
18406;DHT22;9329;48.720;9.588;2022-12-13T12:00:56;2.50;99.90
18406;DHT22;9329;48.720;9.588;2022-12-13T12:03:33;2.60;99.90
18406;DHT22;9329;48.720;9.588;2022-12-13T12:06:06;2.50;99.90
18406;DHT22;9329;48.720;9.588;2022-12-13T12:08:38;2.50;99.90
18406;DHT22;9329;48.720;9.588;2022-12-13T12:11:13;2.20;99.90
18406;DHT22;9329;48.720;9.588;2022-12-13T12:13:46;2.70;99.90
18406;DHT22;9329;48.720;9.588;2022-12-13T12:16:22;2.90;99.90
18406;DHT22;9329;48.720;9.588;2022-12-13T12:18:53;2.90;99.90
18406;DHT22;9329;48.720;9.588;2022-12-13T12:21:33;3.10;99.90
18406;DHT22;9329;48.720;9.588;2022-12-13T12:24:11;3.20;99.90
18406;DHT22;9329;48.720;9.588;2022-12-13T12:26:51;3.40;99.90
18406;DHT22;9329;48.720;9.588;2022-12-13T12:32:32;3.70;99.60
18406;DHT22;9329;48.720;9.588;2022-12-13T12:38:11;3.70;99.50
18406;DHT22;9329;48.720;9.588;2022-12-13T12:40:56;3.80;99.20
18406;DHT22;9329;48.720;9.588;2022-12-13T12:43:31;4.10;99.00
18406;DHT22;9329;48.720;9.588;2022-12-13T12:46:10;4.50;98.50
18406;DHT22;9329;48.720;9.588;2022-12-13T12:49:02;4.70;97.70
18406;DHT22;9329;48.720;9.588;2022-12-13T12:51:45;4.60;97.00
18406;DHT22;9329;48.720;9.588;2022-12-13T12:54:35;4.50;97.30
18406;DHT22;9329;48.720;9.588;2022-12-13T12:57:13;4.40;97.10
18406;DHT22;9329;48.720;9.588;2022-12-13T12:59:50;4.20;97.00
18406;DHT22;9329;48.720;9.588;2022-12-13T13:02:28;4.30;97.10
18406;DHT22;9329;48.720;9.588;2022-12-13T13:05:00;4.50;96.90
18406;DHT22;9329;48.720;9.588;2022-12-13T13:07:31;4.30;96.10
18406;DHT22;9329;48.720;9.588;2022-12-13T13:10:02;4.30;96.50
18406;DHT22;9329;48.720;9.588;2022-12-13T13:12:32;4.20;97.00
18406;DHT22;9329;48.720;9.588;2022-12-13T13:18:44;4.00;96.60
18406;DHT22;9329;48.720;9.588;2022-12-13T13:21:37;4.20;96.90
18406;DHT22;9329;48.720;9.588;2022-12-13T13:24:19;4.60;96.30
18406;DHT22;9329;48.720;9.588;2022-12-13T13:26:49;5.00;95.80
18406;DHT22;9329;48.720;9.588;2022-12-13T13:32:25;5.20;95.00
18406;DHT22;9329;48.720;9.588;2022-12-13T13:34:54;4.80;95.00
18406;DHT22;9329;48.720;9.588;2022-12-13T13:37:43;4.40;94.90
18406;DHT22;9329;48.720;9.588;2022-12-13T13:40:30;4.50;95.00
18406;DHT22;9329;48.720;9.588;2022-12-13T13:43:13;4.50;94.80
18406;DHT22;9329;48.720;9.588;2022-12-13T13:45:58;4.30;95.20
18406;DHT22;9329;48.720;9.588;2022-12-13T13:48:54;4.10;95.30
18406;DHT22;9329;48.720;9.588;2022-12-13T13:51:50;4.30;95.20
18406;DHT22;9329;48.720;9.588;2022-12-13T13:54:49;4.20;95.10
18406;DHT22;9329;48.720;9.588;2022-12-13T13:57:41;3.60;95.20
18406;DHT22;9329;48.720;9.588;2022-12-13T14:00:16;3.10;96.70
18406;DHT22;9329;48.720;9.588;2022-12-13T14:09:36;3.50;96.90
18406;DHT22;9329;48.720;9.588;2022-12-13T14:15:37;3.50;96.70
18406;DHT22;9329;48.720;9.588;2022-12-13T14:21:31;3.20;96.00
18406;DHT22;9329;48.720;9.588;2022-12-13T14:24:12;3.10;96.40
18406;DHT22;9329;48.720;9.588;2022-12-13T14:26:50;3.30;96.70
18406;DHT22;9329;48.720;9.588;2022-12-13T14:29:25;3.30;97.10
18406;DHT22;9329;48.720;9.588;2022-12-13T14:31:54;2.90;96.80
18406;DHT22;9329;48.720;9.588;2022-12-13T14:34:24;3.20;96.60
18406;DHT22;9329;48.720;9.588;2022-12-13T14:36:58;2.80;97.20
18406;DHT22;9329;48.720;9.588;2022-12-13T14:39:25;2.90;97.10
18406;DHT22;9329;48.720;9.588;2022-12-13T14:41:56;2.40;97.60
18406;DHT22;9329;48.720;9.588;2022-12-13T14:44:25;2.20;98.00
18406;DHT22;9329;48.720;9.588;2022-12-13T14:46:55;2.40;98.30
18406;DHT22;9329;48.720;9.588;2022-12-13T14:49:24;2.60;97.80
18406;DHT22;9329;48.720;9.588;2022-12-13T14:51:54;2.70;97.10
18406;DHT22;9329;48.720;9.588;2022-12-13T14:54:30;2.50;97.70
18406;DHT22;9329;48.720;9.588;2022-12-13T14:57:01;2.20;98.00
18406;DHT22;9329;48.720;9.588;2022-12-13T14:59:29;1.80;98.40
18406;DHT22;9329;48.720;9.588;2022-12-13T15:02:00;2.20;98.80
18406;DHT22;9329;48.720;9.588;2022-12-13T15:04:29;2.10;98.60
18406;DHT22;9329;48.720;9.588;2022-12-13T15:07:01;2.20;98.70
18406;DHT22;9329;48.720;9.588;2022-12-13T15:09:29;1.90;99.30
18406;DHT22;9329;48.720;9.588;2022-12-13T15:12:01;1.60;98.90
18406;DHT22;9329;48.720;9.588;2022-12-13T15:14:34;1.70;98.70
18406;DHT22;9329;48.720;9.588;2022-12-13T15:17:03;1.50;99.20
18406;DHT22;9329;48.720;9.588;2022-12-13T15:19:31;1.20;99.40
18406;DHT22;9329;48.720;9.588;2022-12-13T15:22:05;1.30;99.70
18406;DHT22;9329;48.720;9.588;2022-12-13T15:24:42;1.50;99.30
18406;DHT22;9329;48.720;9.588;2022-12-13T15:27:34;1.00;99.50
18406;DHT22;9329;48.720;9.588;2022-12-13T15:30:01;0.90;99.90
18406;DHT22;9329;48.720;9.588;2022-12-13T15:32:28;0.90;99.90
18406;DHT22;9329;48.720;9.588;2022-12-13T15:34:55;0.80;99.90
18406;DHT22;9329;48.720;9.588;2022-12-13T15:37:25;0.70;99.90
18406;DHT22;9329;48.720;9.588;2022-12-13T15:39:56;0.80;99.90
18406;DHT22;9329;48.720;9.588;2022-12-13T15:42:30;0.50;99.90
18406;DHT22;9329;48.720;9.588;2022-12-13T15:45:01;0.70;99.90
18406;DHT22;9329;48.720;9.588;2022-12-13T15:47:30;0.60;99.90
18406;DHT22;9329;48.720;9.588;2022-12-13T15:49:59;0.60;99.90
18406;DHT22;9329;48.720;9.588;2022-12-13T15:52:32;0.50;99.90
18406;DHT22;9329;48.720;9.588;2022-12-13T15:55:16;0.50;99.90
18406;DHT22;9329;48.720;9.588;2022-12-13T15:57:49;0.10;99.90
18406;DHT22;9329;48.720;9.588;2022-12-13T16:00:23;0.10;99.90
18406;DHT22;9329;48.720;9.588;2022-12-13T16:02:54;0.00;99.90
18406;DHT22;9329;48.720;9.588;2022-12-13T16:05:28;0.00;99.90
18406;DHT22;9329;48.720;9.588;2022-12-13T16:07:57;0.00;99.90
18406;DHT22;9329;48.720;9.588;2022-12-13T16:10:26;-0.20;99.90
18406;DHT22;9329;48.720;9.588;2022-12-13T16:12:56;-0.50;99.90
18406;DHT22;9329;48.720;9.588;2022-12-13T16:15:26;-0.30;99.90
18406;DHT22;9329;48.720;9.588;2022-12-13T16:18:04;-0.70;99.90
18406;DHT22;9329;48.720;9.588;2022-12-13T16:20:32;-0.50;99.90
18406;DHT22;9329;48.720;9.588;2022-12-13T16:22:59;-0.40;99.90
18406;DHT22;9329;48.720;9.588;2022-12-13T16:25:26;-0.60;99.90
18406;DHT22;9329;48.720;9.588;2022-12-13T16:27:56;-0.70;99.90
18406;DHT22;9329;48.720;9.588;2022-12-13T16:30:26;-0.50;99.90
18406;DHT22;9329;48.720;9.588;2022-12-13T16:32:54;-0.40;99.90
18406;DHT22;9329;48.720;9.588;2022-12-13T16:35:21;-0.60;99.90
18406;DHT22;9329;48.720;9.588;2022-12-13T16:37:48;-0.60;99.90
18406;DHT22;9329;48.720;9.588;2022-12-13T16:40:26;-0.70;99.90
18406;DHT22;9329;48.720;9.588;2022-12-13T16:42:59;-0.80;99.90
18406;DHT22;9329;48.720;9.588;2022-12-13T16:45:34;-0.70;99.90
18406;DHT22;9329;48.720;9.588;2022-12-13T16:48:03;-1.00;99.90
18406;DHT22;9329;48.720;9.588;2022-12-13T16:50:31;-1.20;99.90